Gallup Mills, Vermont
Current Conditions -  °F | °C
As of 5:15 AM on Saturday 25 Oct 2014 (Local Time) from KCDA Reporting Station
Haze Haze  
Wind Chill: 32°   Ceiling: 700
Heat Index: 32°   Visibility: 1.7mi
Dew Point: 31°   Wind: 0mph
Humidity: 95%   Direction: NA
Pressure: 29.76"   Gusts: NA
Location:  44.5627°N, 71.7775°W
Report Text: KCDA 250915Z AUTO 00000KT 1 3/4SM BR VV007 00/00 A2976 RMK AO2 VIS 3/4V5 T00021005
Loading
Personal Weather Stations






























Interactive Weather Map New forecast layout! Learn more

10-Day Weather Forecast

Advertisements
Track Severe Weather on mobile